Terminal Aerodrome Forecast
Issued by NWS Cleveland, OH

Home | Current Version | Previous Version | Graphics & Text | Print | Product List | Glossary On
Versions: 1 2 3 4 5 6 7 8 9 10 11 12 13 14 15 16 17 18 19 20 21 22 23
913
FTUS41 KCLE 150532
TAFCAK
TAF
KCAK 150532Z 1506/1606 12005KT P6SM BKN200
     FM151400 15008KT P6SM OVC025
     FM151700 16010KT 3SM -SN OVC020
     FM151900 16010KT 3SM -SN OVC015
     FM152100 17009KT 1 1/2SM -SN OVC010
     FM160200 20007KT P6SM OVC010
     FM160500 23007KT P6SM BKN010=

USA.gov is the U.S. government's official web portal to all federal, state and local government web resources and services.